createdAt,value
2023-02-05T00:04:15.432Z,13.90
2023-02-05T00:09:18.138Z,14.38
2023-02-05T00:14:19.814Z,13.52
2023-02-05T00:19:21.456Z,13.77
2023-02-05T00:24:23.206Z,12.85
2023-02-05T00:29:24.807Z,13.40
2023-02-05T00:34:26.415Z,12.30
2023-02-05T00:39:28.124Z,11.63
2023-02-05T00:44:29.909Z,9.88
2023-02-05T00:49:31.562Z,9.40
2023-02-05T00:54:33.239Z,9.07
2023-02-05T00:59:34.921Z,10.23
2023-02-05T01:04:36.532Z,9.93
2023-02-05T01:09:38.321Z,7.82
2023-02-05T01:14:41.396Z,7.60
2023-02-05T01:19:43.037Z,6.72
2023-02-05T01:24:44.778Z,5.47
2023-02-05T01:29:46.600Z,5.03
2023-02-05T01:34:49.007Z,3.58
2023-02-05T01:39:50.796Z,4.00
2023-02-05T01:45:21.661Z,3.22
2023-02-05T01:50:32.292Z,3.05
2023-02-05T01:55:39.624Z,3.17
2023-02-05T02:00:41.661Z,2.40
2023-02-05T02:05:43.436Z,2.10
2023-02-05T02:10:48.616Z,2.30
2023-02-05T02:15:50.613Z,2.42
2023-02-05T02:21:38.977Z,1.83
2023-02-05T02:27:05.442Z,1.67
2023-02-05T02:32:24.363Z,1.80
2023-02-05T02:37:34.434Z,1.42
2023-02-05T02:42:46.326Z,1.80
2023-02-05T02:47:53.284Z,2.38
2023-02-05T02:52:56.372Z,2.25
2023-02-05T02:57:59.570Z,2.67
2023-02-05T03:03:05.483Z,3.42
2023-02-05T03:08:13.862Z,3.47
2023-02-05T03:13:15.665Z,4.45
2023-02-05T03:18:24.000Z,3.65
2023-02-05T03:23:29.755Z,3.90
2023-02-05T03:28:32.168Z,5.00
2023-02-05T03:33:57.859Z,3.97
2023-02-05T03:39:16.339Z,3.45
2023-02-05T03:44:50.758Z,3.38
2023-02-05T03:50:07.175Z,3.38
2023-02-05T03:55:17.451Z,3.42
2023-02-05T04:00:20.346Z,3.50
2023-02-05T04:05:26.835Z,2.60
2023-02-05T04:10:31.859Z,1.90
2023-02-05T04:15:36.223Z,1.08
2023-02-05T04:20:41.772Z,1.55
2023-02-05T04:25:44.417Z,2.63
2023-02-05T04:30:49.823Z,1.60
2023-02-05T04:35:51.609Z,1.88
2023-02-05T04:40:53.558Z,1.70
2023-02-05T04:45:55.251Z,2.30
2023-02-05T04:50:56.887Z,2.10
2023-02-05T04:56:10.110Z,1.70
2023-02-05T05:01:20.622Z,1.50
2023-02-05T05:06:22.424Z,0.73
2023-02-05T05:11:24.054Z,2.00
2023-02-05T05:16:25.800Z,1.95
2023-02-05T05:21:27.380Z,1.25
2023-02-05T05:26:29.007Z,1.40
2023-02-05T05:31:30.633Z,1.98
2023-02-05T05:36:32.376Z,1.85
2023-02-05T05:41:53.000Z,3.05
2023-02-05T05:46:54.771Z,2.83
2023-02-05T05:51:56.414Z,3.15
2023-02-05T05:56:57.996Z,1.25
2023-02-05T06:02:01.392Z,3.45
2023-02-05T06:07:03.004Z,2.75
2023-02-05T06:12:04.765Z,2.55
2023-02-05T06:17:07.469Z,1.25
2023-02-05T06:22:09.308Z,1.35
2023-02-05T06:27:10.975Z,1.83
2023-02-05T06:32:12.611Z,2.08
2023-02-05T06:37:14.619Z,2.22
2023-02-05T06:42:16.230Z,2.90
2023-02-05T06:47:17.961Z,2.30
2023-02-05T06:52:19.592Z,2.35
2023-02-05T06:57:21.263Z,3.85
2023-02-05T07:02:22.907Z,2.92
2023-02-05T07:07:24.508Z,2.38
2023-02-05T07:12:26.387Z,2.58
2023-02-05T07:17:27.973Z,3.33
2023-02-05T07:22:29.635Z,3.60
2023-02-05T07:27:31.335Z,3.17
2023-02-05T07:32:32.922Z,3.17
2023-02-05T07:37:37.351Z,3.60
2023-02-05T07:42:38.968Z,3.05
2023-02-05T07:47:42.533Z,3.38
2023-02-05T07:52:44.434Z,3.05
2023-02-05T07:57:47.183Z,3.40
2023-02-05T08:02:49.589Z,3.58
2023-02-05T08:07:51.463Z,2.58
2023-02-05T08:12:53.178Z,3.45
2023-02-05T08:17:55.397Z,3.47
2023-02-05T08:22:57.177Z,2.78
2023-02-05T08:27:58.960Z,3.53
2023-02-05T08:33:00.753Z,2.78
2023-02-05T08:38:03.780Z,2.90
2023-02-05T08:43:05.550Z,3.75
2023-02-05T08:48:07.873Z,4.63
2023-02-05T08:53:09.789Z,4.18
2023-02-05T08:58:11.636Z,4.20
2023-02-05T09:03:13.384Z,4.15
2023-02-05T09:08:15.041Z,3.20
2023-02-05T09:13:16.787Z,4.65
2023-02-05T09:18:18.580Z,3.22
2023-02-05T09:23:20.601Z,3.35
2023-02-05T09:28:22.378Z,3.42
2023-02-05T09:33:24.168Z,4.80
2023-02-05T09:38:25.793Z,3.42
2023-02-05T09:43:52.351Z,4.00
2023-02-05T09:49:42.286Z,4.10
2023-02-05T09:54:49.728Z,3.10
2023-02-05T09:59:51.456Z,2.03
2023-02-05T10:04:54.912Z,2.45
2023-02-05T10:10:16.106Z,2.17
2023-02-05T10:15:53.280Z,2.13
2023-02-05T10:21:13.351Z,2.78
2023-02-05T10:26:18.372Z,2.22
2023-02-05T10:31:42.243Z,2.55
2023-02-05T10:36:49.267Z,2.08
2023-02-05T10:42:06.841Z,4.25
2023-02-05T10:47:24.909Z,2.15
2023-02-05T10:52:26.922Z,2.80
2023-02-05T10:57:34.051Z,2.30
2023-02-05T11:02:41.498Z,3.83
2023-02-05T11:07:49.613Z,1.83
2023-02-05T11:12:55.761Z,2.95
2023-02-05T11:18:04.469Z,2.75
2023-02-05T11:23:17.966Z,3.72
2023-02-05T11:28:27.820Z,4.13
2023-02-05T11:33:31.439Z,1.60
2023-02-05T11:38:42.195Z,2.30
2023-02-05T11:43:50.972Z,1.45
2023-02-05T11:49:00.853Z,1.38
2023-02-05T11:54:07.618Z,2.95
2023-02-05T11:59:22.774Z,3.53
2023-02-05T12:04:26.370Z,2.60
2023-02-05T12:09:28.092Z,2.42
2023-02-05T12:15:00.939Z,1.17
2023-02-05T12:20:16.725Z,2.08
2023-02-05T12:25:51.668Z,4.35
2023-02-05T12:30:58.054Z,4.00
2023-02-05T12:36:27.090Z,1.88
2023-02-05T12:41:53.190Z,4.15
2023-02-05T12:47:19.705Z,2.08
2023-02-05T12:53:13.915Z,3.05
2023-02-05T12:58:19.135Z,2.00
2023-02-05T13:03:38.833Z,1.90
2023-02-05T13:09:05.511Z,3.63
2023-02-05T13:14:19.998Z,4.50
2023-02-05T13:19:30.930Z,4.30
2023-02-05T13:25:06.808Z,3.10
2023-02-05T13:30:16.884Z,3.35
2023-02-05T13:35:22.034Z,3.88
2023-02-05T13:40:47.325Z,4.18
2023-02-05T13:46:38.976Z,3.10
2023-02-05T13:51:55.821Z,3.75
2023-02-05T13:57:31.536Z,4.32
2023-02-05T14:02:43.497Z,3.88
2023-02-05T14:07:50.874Z,4.47
2023-02-05T14:12:52.978Z,3.35
2023-02-05T14:17:55.902Z,3.45
2023-02-05T14:23:01.078Z,3.70
2023-02-05T14:28:08.944Z,3.50
2023-02-05T14:33:10.682Z,4.95
2023-02-05T14:38:31.208Z,5.03
2023-02-05T14:43:36.422Z,4.57
2023-02-05T14:48:43.185Z,1.13
2023-02-05T14:53:55.877Z,3.63
2023-02-05T14:59:05.217Z,3.90
2023-02-05T15:04:20.446Z,4.70
2023-02-05T15:09:45.993Z,3.72
2023-02-05T15:14:47.546Z,3.55
2023-02-05T15:20:05.932Z,3.58
2023-02-05T15:25:28.167Z,2.47
2023-02-05T15:30:45.989Z,5.22
2023-02-05T15:35:49.886Z,3.95
2023-02-05T15:40:52.627Z,3.60
2023-02-05T15:46:14.635Z,3.20
2023-02-05T15:51:28.744Z,4.28
2023-02-05T15:56:41.399Z,4.53
2023-02-05T16:01:49.494Z,3.25
2023-02-05T16:06:51.130Z,3.95
2023-02-05T16:11:53.193Z,4.80
2023-02-05T16:17:25.234Z,5.13
2023-02-05T16:22:42.681Z,5.25
2023-02-05T16:27:49.457Z,5.45
2023-02-05T16:32:55.821Z,5.40
2023-02-05T16:37:58.977Z,5.70
2023-02-05T16:43:16.100Z,5.55
2023-02-05T16:48:23.405Z,7.40
2023-02-05T16:53:31.615Z,5.97
2023-02-05T16:58:38.372Z,4.45
2023-02-05T17:03:41.553Z,5.65
2023-02-05T17:08:52.940Z,4.70
2023-02-05T17:14:12.930Z,5.68
2023-02-05T17:19:33.228Z,6.13
2023-02-05T17:29:37.780Z,6.50
2023-02-05T17:34:39.683Z,5.47
2023-02-05T17:39:41.671Z,8.38
2023-02-05T17:44:43.337Z,4.88
2023-02-05T17:49:45.052Z,7.47
2023-02-05T17:54:47.508Z,7.05
2023-02-05T17:59:50.295Z,6.57
2023-02-05T18:04:52.633Z,6.97
2023-02-05T18:09:54.401Z,4.75
2023-02-05T18:14:56.376Z,7.30
2023-02-05T18:19:58.042Z,7.85
2023-02-05T18:24:59.759Z,8.68
2023-02-05T18:30:01.768Z,6.82
2023-02-05T18:35:14.988Z,7.38
2023-02-05T18:40:16.903Z,6.50
2023-02-05T18:45:19.445Z,7.10
2023-02-05T18:50:21.979Z,6.32
2023-02-05T18:55:23.767Z,9.23
2023-02-05T19:00:25.533Z,8.50
2023-02-05T19:05:27.748Z,6.78
2023-02-05T19:10:29.566Z,9.05
2023-02-05T19:15:31.786Z,8.02
2023-02-05T19:20:34.427Z,6.72
2023-02-05T19:25:37.332Z,7.35
2023-02-05T19:30:39.242Z,7.35
2023-02-05T19:35:41.334Z,7.05
2023-02-05T19:40:43.278Z,6.90
2023-02-05T19:45:45.469Z,6.72
2023-02-05T19:50:47.187Z,6.15
2023-02-05T19:55:49.117Z,8.25
2023-02-05T20:00:51.628Z,6.82
2023-02-05T20:05:53.510Z,8.10
2023-02-05T20:11:00.002Z,8.38
2023-02-05T20:16:07.625Z,7.22
2023-02-05T20:21:12.247Z,8.65
2023-02-05T20:26:18.926Z,7.47
2023-02-05T20:31:33.517Z,10.53
2023-02-05T20:36:37.729Z,6.80
2023-02-05T20:41:39.437Z,6.60
2023-02-05T20:46:41.450Z,6.82
2023-02-05T20:51:43.783Z,8.82
2023-02-05T20:56:45.433Z,6.82
2023-02-05T21:01:47.244Z,7.80
2023-02-05T21:06:49.422Z,7.78
2023-02-05T21:11:55.480Z,11.02
2023-02-05T21:16:57.379Z,7.57
2023-02-05T21:21:59.362Z,6.90
2023-02-05T21:27:01.233Z,6.13
2023-02-05T21:32:02.970Z,5.85
2023-02-05T21:37:04.638Z,6.85
2023-02-05T21:42:06.346Z,7.30
2023-02-05T21:47:08.020Z,6.55
2023-02-05T21:52:09.856Z,9.05
2023-02-05T21:57:11.533Z,6.10
2023-02-05T22:02:13.277Z,5.28
2023-02-05T22:07:14.900Z,7.43
2023-02-05T22:12:16.489Z,5.20
2023-02-05T22:17:18.237Z,6.75
2023-02-05T22:22:19.899Z,4.13
2023-02-05T22:27:21.723Z,4.18
2023-02-05T22:32:23.554Z,5.05
2023-02-05T22:37:25.219Z,6.50
2023-02-05T22:42:27.010Z,5.75
2023-02-05T22:47:29.281Z,3.78
2023-02-05T22:52:30.879Z,3.97
2023-02-05T22:57:32.551Z,4.60
2023-02-05T23:02:34.581Z,5.00
2023-02-05T23:07:36.210Z,4.78
2023-02-05T23:12:37.841Z,4.28
2023-02-05T23:17:39.542Z,4.50
2023-02-05T23:22:41.260Z,4.32
2023-02-05T23:27:43.003Z,3.83
2023-02-05T23:32:44.762Z,4.22
2023-02-05T23:37:46.409Z,3.90
2023-02-05T23:42:48.001Z,3.33
2023-02-05T23:47:49.583Z,3.72
2023-02-05T23:52:51.285Z,4.35
2023-02-05T23:57:53.480Z,3.35
